sensor_id;sensor_type;location;lat;lon;timestamp;P1;durP1;ratioP1;P2;durP2;ratioP2
75456;SDS011;64036;48.266;14.192;2023-05-19T00:01:31;10.20;;;3.10;;
75456;SDS011;64036;48.266;14.192;2023-05-19T00:04:04;6.80;;;3.60;;
75456;SDS011;64036;48.266;14.192;2023-05-19T00:06:32;7.00;;;3.60;;
75456;SDS011;64036;48.266;14.192;2023-05-19T00:09:03;9.10;;;3.70;;
75456;SDS011;64036;48.266;14.192;2023-05-19T00:14:04;6.20;;;3.00;;
75456;SDS011;64036;48.266;14.192;2023-05-19T00:16:32;8.20;;;3.10;;
75456;SDS011;64036;48.266;14.192;2023-05-19T00:19:00;6.70;;;3.40;;
75456;SDS011;64036;48.266;14.192;2023-05-19T00:21:37;6.80;;;3.50;;
75456;SDS011;64036;48.266;14.192;2023-05-19T00:24:03;9.40;;;3.70;;
75456;SDS011;64036;48.266;14.192;2023-05-19T00:26:31;9.00;;;3.60;;
75456;SDS011;64036;48.266;14.192;2023-05-19T00:28:57;8.60;;;3.40;;
75456;SDS011;64036;48.266;14.192;2023-05-19T00:31:23;6.20;;;3.50;;
75456;SDS011;64036;48.266;14.192;2023-05-19T00:33:49;8.60;;;3.60;;
75456;SDS011;64036;48.266;14.192;2023-05-19T00:36:23;10.60;;;3.70;;
75456;SDS011;64036;48.266;14.192;2023-05-19T00:38:50;7.30;;;3.80;;
75456;SDS011;64036;48.266;14.192;2023-05-19T00:41:19;8.30;;;4.00;;
75456;SDS011;64036;48.266;14.192;2023-05-19T00:43:45;6.20;;;3.40;;
75456;SDS011;64036;48.266;14.192;2023-05-19T00:46:11;8.40;;;3.90;;
75456;SDS011;64036;48.266;14.192;2023-05-19T00:48:39;8.30;;;3.60;;
75456;SDS011;64036;48.266;14.192;2023-05-19T00:51:06;8.80;;;3.80;;
75456;SDS011;64036;48.266;14.192;2023-05-19T00:53:39;8.90;;;3.50;;
75456;SDS011;64036;48.266;14.192;2023-05-19T00:56:05;7.30;;;3.60;;
75456;SDS011;64036;48.266;14.192;2023-05-19T00:58:32;8.50;;;3.80;;
75456;SDS011;64036;48.266;14.192;2023-05-19T01:01:03;7.80;;;3.30;;
75456;SDS011;64036;48.266;14.192;2023-05-19T01:03:33;8.90;;;4.10;;
75456;SDS011;64036;48.266;14.192;2023-05-19T01:06:03;7.30;;;3.70;;
75456;SDS011;64036;48.266;14.192;2023-05-19T01:08:36;10.00;;;3.40;;
75456;SDS011;64036;48.266;14.192;2023-05-19T01:11:06;6.80;;;3.50;;
75456;SDS011;64036;48.266;14.192;2023-05-19T01:13:35;9.90;;;3.90;;
75456;SDS011;64036;48.266;14.192;2023-05-19T01:16:11;7.00;;;3.90;;
75456;SDS011;64036;48.266;14.192;2023-05-19T01:19:02;9.30;;;4.00;;
75456;SDS011;64036;48.266;14.192;2023-05-19T01:28:57;7.40;;;3.40;;
75456;SDS011;64036;48.266;14.192;2023-05-19T01:31:35;7.20;;;3.30;;
75456;SDS011;64036;48.266;14.192;2023-05-19T01:34:05;6.40;;;3.40;;
75456;SDS011;64036;48.266;14.192;2023-05-19T01:36:35;10.90;;;4.10;;
75456;SDS011;64036;48.266;14.192;2023-05-19T01:39:01;8.40;;;3.80;;
75456;SDS011;64036;48.266;14.192;2023-05-19T01:41:37;8.40;;;3.60;;
75456;SDS011;64036;48.266;14.192;2023-05-19T01:44:04;7.50;;;4.00;;
75456;SDS011;64036;48.266;14.192;2023-05-19T01:46:37;6.10;;;3.30;;
75456;SDS011;64036;48.266;14.192;2023-05-19T01:49:08;6.80;;;3.40;;
75456;SDS011;64036;48.266;14.192;2023-05-19T01:51:37;6.90;;;3.70;;
75456;SDS011;64036;48.266;14.192;2023-05-19T01:54:06;7.80;;;4.00;;
75456;SDS011;64036;48.266;14.192;2023-05-19T01:56:51;6.40;;;3.50;;
75456;SDS011;64036;48.266;14.192;2023-05-19T02:02:20;5.60;;;3.60;;
75456;SDS011;64036;48.266;14.192;2023-05-19T02:04:56;6.10;;;3.50;;
75456;SDS011;64036;48.266;14.192;2023-05-19T02:07:43;7.40;;;3.40;;
75456;SDS011;64036;48.266;14.192;2023-05-19T02:10:22;8.40;;;3.80;;
75456;SDS011;64036;48.266;14.192;2023-05-19T02:12:52;8.70;;;3.60;;
75456;SDS011;64036;48.266;14.192;2023-05-19T02:15:24;7.30;;;3.70;;
75456;SDS011;64036;48.266;14.192;2023-05-19T02:17:52;7.90;;;3.70;;
75456;SDS011;64036;48.266;14.192;2023-05-19T02:20:20;7.90;;;3.60;;
75456;SDS011;64036;48.266;14.192;2023-05-19T02:23:01;5.70;;;3.50;;
75456;SDS011;64036;48.266;14.192;2023-05-19T02:25:27;8.20;;;3.60;;
75456;SDS011;64036;48.266;14.192;2023-05-19T02:27:58;7.00;;;3.80;;
75456;SDS011;64036;48.266;14.192;2023-05-19T02:30:24;9.60;;;3.70;;
75456;SDS011;64036;48.266;14.192;2023-05-19T02:32:50;9.40;;;3.70;;
75456;SDS011;64036;48.266;14.192;2023-05-19T02:35:20;8.90;;;4.30;;
75456;SDS011;64036;48.266;14.192;2023-05-19T02:37:51;7.10;;;3.80;;
75456;SDS011;64036;48.266;14.192;2023-05-19T02:40:21;8.40;;;4.50;;
75456;SDS011;64036;48.266;14.192;2023-05-19T02:42:52;8.50;;;4.70;;
75456;SDS011;64036;48.266;14.192;2023-05-19T02:45:23;9.80;;;4.50;;
75456;SDS011;64036;48.266;14.192;2023-05-19T02:47:52;7.70;;;4.50;;
75456;SDS011;64036;48.266;14.192;2023-05-19T02:50:21;8.20;;;4.50;;
75456;SDS011;64036;48.266;14.192;2023-05-19T02:52:52;7.60;;;4.60;;
75456;SDS011;64036;48.266;14.192;2023-05-19T02:55:29;6.90;;;4.30;;
75456;SDS011;64036;48.266;14.192;2023-05-19T02:57:54;5.80;;;4.10;;
75456;SDS011;64036;48.266;14.192;2023-05-19T03:00:29;7.40;;;3.90;;
75456;SDS011;64036;48.266;14.192;2023-05-19T03:03:00;7.90;;;4.20;;
75456;SDS011;64036;48.266;14.192;2023-05-19T03:05:27;8.20;;;4.60;;
75456;SDS011;64036;48.266;14.192;2023-05-19T03:07:56;8.00;;;4.00;;
75456;SDS011;64036;48.266;14.192;2023-05-19T03:10:24;8.20;;;4.50;;
75456;SDS011;64036;48.266;14.192;2023-05-19T03:13:02;8.10;;;3.90;;
75456;SDS011;64036;48.266;14.192;2023-05-19T03:15:31;8.30;;;4.40;;
75456;SDS011;64036;48.266;14.192;2023-05-19T03:17:57;6.50;;;4.20;;
75456;SDS011;64036;48.266;14.192;2023-05-19T03:20:25;9.30;;;4.90;;
75456;SDS011;64036;48.266;14.192;2023-05-19T03:22:55;7.90;;;4.50;;
75456;SDS011;64036;48.266;14.192;2023-05-19T03:25:24;9.20;;;4.40;;
75456;SDS011;64036;48.266;14.192;2023-05-19T03:27:53;7.00;;;4.40;;
75456;SDS011;64036;48.266;14.192;2023-05-19T03:30:18;7.30;;;4.40;;
75456;SDS011;64036;48.266;14.192;2023-05-19T03:32:46;10.70;;;4.70;;
75456;SDS011;64036;48.266;14.192;2023-05-19T03:35:16;7.90;;;4.20;;
75456;SDS011;64036;48.266;14.192;2023-05-19T03:37:45;10.50;;;5.20;;
75456;SDS011;64036;48.266;14.192;2023-05-19T03:40:11;8.00;;;4.90;;
75456;SDS011;64036;48.266;14.192;2023-05-19T03:42:37;8.50;;;4.80;;
75456;SDS011;64036;48.266;14.192;2023-05-19T03:45:03;9.00;;;5.50;;
75456;SDS011;64036;48.266;14.192;2023-05-19T03:47:29;10.20;;;5.30;;
75456;SDS011;64036;48.266;14.192;2023-05-19T03:49:56;8.90;;;5.00;;
75456;SDS011;64036;48.266;14.192;2023-05-19T03:52:24;7.00;;;4.60;;
75456;SDS011;64036;48.266;14.192;2023-05-19T03:54:50;9.60;;;4.80;;
75456;SDS011;64036;48.266;14.192;2023-05-19T03:57:18;10.40;;;5.10;;
75456;SDS011;64036;48.266;14.192;2023-05-19T03:59:44;9.30;;;5.00;;
75456;SDS011;64036;48.266;14.192;2023-05-19T04:02:10;9.70;;;5.00;;
75456;SDS011;64036;48.266;14.192;2023-05-19T04:04:40;10.30;;;5.60;;
75456;SDS011;64036;48.266;14.192;2023-05-19T04:07:06;9.90;;;5.20;;
75456;SDS011;64036;48.266;14.192;2023-05-19T04:09:32;12.70;;;6.10;;
75456;SDS011;64036;48.266;14.192;2023-05-19T04:12:00;13.00;;;5.60;;
75456;SDS011;64036;48.266;14.192;2023-05-19T04:14:29;11.80;;;5.60;;
75456;SDS011;64036;48.266;14.192;2023-05-19T04:16:55;11.90;;;6.40;;
75456;SDS011;64036;48.266;14.192;2023-05-19T04:19:24;9.60;;;5.70;;
75456;SDS011;64036;48.266;14.192;2023-05-19T04:21:50;10.40;;;6.40;;
75456;SDS011;64036;48.266;14.192;2023-05-19T04:24:16;12.70;;;6.80;;
75456;SDS011;64036;48.266;14.192;2023-05-19T04:26:41;11.00;;;6.40;;
75456;SDS011;64036;48.266;14.192;2023-05-19T04:29:10;11.30;;;6.40;;
75456;SDS011;64036;48.266;14.192;2023-05-19T04:31:39;9.40;;;5.50;;
75456;SDS011;64036;48.266;14.192;2023-05-19T04:34:05;10.50;;;5.60;;
75456;SDS011;64036;48.266;14.192;2023-05-19T04:36:34;11.50;;;6.40;;
75456;SDS011;64036;48.266;14.192;2023-05-19T04:39:03;11.00;;;6.10;;
75456;SDS011;64036;48.266;14.192;2023-05-19T04:41:32;10.80;;;6.00;;
75456;SDS011;64036;48.266;14.192;2023-05-19T04:43:59;11.40;;;6.30;;
75456;SDS011;64036;48.266;14.192;2023-05-19T04:46:25;10.90;;;6.40;;
75456;SDS011;64036;48.266;14.192;2023-05-19T04:48:52;10.10;;;5.20;;
75456;SDS011;64036;48.266;14.192;2023-05-19T04:51:22;10.60;;;5.40;;
75456;SDS011;64036;48.266;14.192;2023-05-19T04:53:53;10.80;;;6.00;;
75456;SDS011;64036;48.266;14.192;2023-05-19T04:56:19;12.70;;;6.40;;
75456;SDS011;64036;48.266;14.192;2023-05-19T04:58:46;9.80;;;5.40;;
75456;SDS011;64036;48.266;14.192;2023-05-19T05:01:12;10.50;;;6.00;;
75456;SDS011;64036;48.266;14.192;2023-05-19T05:03:43;11.30;;;5.80;;
75456;SDS011;64036;48.266;14.192;2023-05-19T05:06:09;12.00;;;5.90;;
75456;SDS011;64036;48.266;14.192;2023-05-19T05:08:35;8.10;;;4.70;;
75456;SDS011;64036;48.266;14.192;2023-05-19T05:11:04;9.00;;;5.30;;
75456;SDS011;64036;48.266;14.192;2023-05-19T05:13:30;11.00;;;5.90;;
75456;SDS011;64036;48.266;14.192;2023-05-19T05:15:57;9.30;;;5.40;;
75456;SDS011;64036;48.266;14.192;2023-05-19T05:18:24;9.90;;;5.60;;
75456;SDS011;64036;48.266;14.192;2023-05-19T05:20:51;11.00;;;6.10;;
75456;SDS011;64036;48.266;14.192;2023-05-19T05:23:17;14.00;;;7.00;;
75456;SDS011;64036;48.266;14.192;2023-05-19T05:25:46;12.50;;;6.70;;
75456;SDS011;64036;48.266;14.192;2023-05-19T05:28:12;11.50;;;7.00;;
75456;SDS011;64036;48.266;14.192;2023-05-19T05:30:38;10.10;;;5.90;;
75456;SDS011;64036;48.266;14.192;2023-05-19T05:33:05;10.70;;;6.40;;
75456;SDS011;64036;48.266;14.192;2023-05-19T05:35:31;11.00;;;5.50;;
75456;SDS011;64036;48.266;14.192;2023-05-19T05:37:57;10.90;;;5.90;;
75456;SDS011;64036;48.266;14.192;2023-05-19T05:40:23;11.40;;;5.60;;
75456;SDS011;64036;48.266;14.192;2023-05-19T05:42:48;10.90;;;6.00;;
75456;SDS011;64036;48.266;14.192;2023-05-19T05:45:14;10.00;;;5.50;;
75456;SDS011;64036;48.266;14.192;2023-05-19T05:47:40;10.30;;;6.00;;
75456;SDS011;64036;48.266;14.192;2023-05-19T05:50:08;12.60;;;6.40;;
75456;SDS011;64036;48.266;14.192;2023-05-19T05:52:35;9.10;;;5.60;;
75456;SDS011;64036;48.266;14.192;2023-05-19T05:55:02;8.40;;;6.00;;
75456;SDS011;64036;48.266;14.192;2023-05-19T05:57:29;11.90;;;6.30;;
75456;SDS011;64036;48.266;14.192;2023-05-19T05:59:55;9.30;;;5.80;;
75456;SDS011;64036;48.266;14.192;2023-05-19T06:02:21;10.20;;;6.30;;
75456;SDS011;64036;48.266;14.192;2023-05-19T06:04:47;11.50;;;6.50;;
75456;SDS011;64036;48.266;14.192;2023-05-19T06:07:13;10.10;;;6.00;;
75456;SDS011;64036;48.266;14.192;2023-05-19T06:09:38;9.80;;;6.30;;
75456;SDS011;64036;48.266;14.192;2023-05-19T06:12:07;9.70;;;5.70;;
75456;SDS011;64036;48.266;14.192;2023-05-19T06:14:33;10.30;;;6.10;;
75456;SDS011;64036;48.266;14.192;2023-05-19T06:16:58;10.30;;;7.00;;
75456;SDS011;64036;48.266;14.192;2023-05-19T06:19:24;9.80;;;5.70;;
75456;SDS011;64036;48.266;14.192;2023-05-19T06:21:50;11.40;;;6.70;;
75456;SDS011;64036;48.266;14.192;2023-05-19T06:24:16;10.70;;;5.60;;
75456;SDS011;64036;48.266;14.192;2023-05-19T06:26:42;13.40;;;6.20;;
75456;SDS011;64036;48.266;14.192;2023-05-19T06:29:07;9.40;;;5.60;;
75456;SDS011;64036;48.266;14.192;2023-05-19T06:31:36;9.90;;;5.80;;
75456;SDS011;64036;48.266;14.192;2023-05-19T06:34:01;7.40;;;4.70;;
75456;SDS011;64036;48.266;14.192;2023-05-19T06:36:27;10.30;;;5.60;;
75456;SDS011;64036;48.266;14.192;2023-05-19T06:38:53;10.10;;;5.80;;
75456;SDS011;64036;48.266;14.192;2023-05-19T06:41:19;8.70;;;5.70;;
75456;SDS011;64036;48.266;14.192;2023-05-19T06:43:45;9.00;;;5.30;;
75456;SDS011;64036;48.266;14.192;2023-05-19T06:46:11;8.90;;;4.90;;
75456;SDS011;64036;48.266;14.192;2023-05-19T06:48:37;9.10;;;5.40;;
75456;SDS011;64036;48.266;14.192;2023-05-19T06:51:03;10.30;;;6.00;;
75456;SDS011;64036;48.266;14.192;2023-05-19T06:53:29;10.90;;;6.00;;
75456;SDS011;64036;48.266;14.192;2023-05-19T06:55:55;8.40;;;5.30;;
75456;SDS011;64036;48.266;14.192;2023-05-19T06:58:21;9.30;;;5.70;;
75456;SDS011;64036;48.266;14.192;2023-05-19T07:00:46;10.80;;;5.90;;
75456;SDS011;64036;48.266;14.192;2023-05-19T07:03:12;12.90;;;6.50;;
75456;SDS011;64036;48.266;14.192;2023-05-19T07:05:37;11.50;;;6.10;;
75456;SDS011;64036;48.266;14.192;2023-05-19T07:08:03;9.70;;;5.40;;
75456;SDS011;64036;48.266;14.192;2023-05-19T07:10:29;11.80;;;6.10;;
75456;SDS011;64036;48.266;14.192;2023-05-19T07:12:55;10.80;;;5.70;;
75456;SDS011;64036;48.266;14.192;2023-05-19T07:15:22;10.80;;;4.50;;
75456;SDS011;64036;48.266;14.192;2023-05-19T07:17:48;9.70;;;5.40;;
75456;SDS011;64036;48.266;14.192;2023-05-19T07:20:13;13.00;;;6.20;;
75456;SDS011;64036;48.266;14.192;2023-05-19T07:22:39;10.60;;;5.80;;
75456;SDS011;64036;48.266;14.192;2023-05-19T07:25:06;10.30;;;5.80;;
75456;SDS011;64036;48.266;14.192;2023-05-19T07:27:35;9.90;;;5.40;;
75456;SDS011;64036;48.266;14.192;2023-05-19T07:30:02;10.90;;;5.80;;
75456;SDS011;64036;48.266;14.192;2023-05-19T07:32:28;7.80;;;4.90;;
75456;SDS011;64036;48.266;14.192;2023-05-19T07:34:53;9.00;;;5.60;;
75456;SDS011;64036;48.266;14.192;2023-05-19T07:37:19;12.10;;;5.80;;
75456;SDS011;64036;48.266;14.192;2023-05-19T07:39:45;12.00;;;5.70;;
75456;SDS011;64036;48.266;14.192;2023-05-19T07:42:11;9.90;;;5.30;;
75456;SDS011;64036;48.266;14.192;2023-05-19T07:44:36;7.50;;;5.70;;
75456;SDS011;64036;48.266;14.192;2023-05-19T07:47:05;11.20;;;6.00;;
75456;SDS011;64036;48.266;14.192;2023-05-19T07:49:33;9.90;;;5.80;;
75456;SDS011;64036;48.266;14.192;2023-05-19T07:51:59;10.80;;;5.70;;
75456;SDS011;64036;48.266;14.192;2023-05-19T07:54:25;7.10;;;4.20;;
75456;SDS011;64036;48.266;14.192;2023-05-19T07:56:50;8.00;;;5.20;;
75456;SDS011;64036;48.266;14.192;2023-05-19T07:59:16;10.50;;;6.10;;
75456;SDS011;64036;48.266;14.192;2023-05-19T08:01:42;8.80;;;5.20;;
75456;SDS011;64036;48.266;14.192;2023-05-19T08:04:07;11.20;;;5.00;;
75456;SDS011;64036;48.266;14.192;2023-05-19T08:06:34;8.20;;;4.80;;
75456;SDS011;64036;48.266;14.192;2023-05-19T08:09:00;10.70;;;4.20;;
75456;SDS011;64036;48.266;14.192;2023-05-19T08:11:26;9.40;;;5.40;;
75456;SDS011;64036;48.266;14.192;2023-05-19T08:13:51;8.30;;;4.60;;
75456;SDS011;64036;48.266;14.192;2023-05-19T08:16:17;8.70;;;5.80;;
75456;SDS011;64036;48.266;14.192;2023-05-19T08:18:43;8.80;;;5.00;;
75456;SDS011;64036;48.266;14.192;2023-05-19T08:21:08;8.60;;;4.60;;
75456;SDS011;64036;48.266;14.192;2023-05-19T08:23:34;8.00;;;4.40;;
75456;SDS011;64036;48.266;14.192;2023-05-19T08:26:01;8.80;;;4.70;;
75456;SDS011;64036;48.266;14.192;2023-05-19T08:28:27;6.80;;;4.00;;
75456;SDS011;64036;48.266;14.192;2023-05-19T08:30:52;7.20;;;4.20;;
75456;SDS011;64036;48.266;14.192;2023-05-19T08:33:18;7.80;;;4.00;;
75456;SDS011;64036;48.266;14.192;2023-05-19T08:35:46;8.20;;;4.10;;
75456;SDS011;64036;48.266;14.192;2023-05-19T08:38:11;7.40;;;4.00;;
75456;SDS011;64036;48.266;14.192;2023-05-19T08:40:40;5.90;;;4.00;;
75456;SDS011;64036;48.266;14.192;2023-05-19T08:43:06;8.20;;;3.80;;
75456;SDS011;64036;48.266;14.192;2023-05-19T08:45:33;6.80;;;3.90;;
75456;SDS011;64036;48.266;14.192;2023-05-19T08:47:59;6.60;;;3.70;;
75456;SDS011;64036;48.266;14.192;2023-05-19T08:50:34;5.80;;;3.80;;
75456;SDS011;64036;48.266;14.192;2023-05-19T08:53:36;6.40;;;4.20;;
75456;SDS011;64036;48.266;14.192;2023-05-19T08:56:10;7.50;;;4.50;;
75456;SDS011;64036;48.266;14.192;2023-05-19T08:58:38;9.20;;;4.40;;
75456;SDS011;64036;48.266;14.192;2023-05-19T09:01:06;6.20;;;3.90;;
75456;SDS011;64036;48.266;14.192;2023-05-19T09:03:35;8.00;;;4.00;;
75456;SDS011;64036;48.266;14.192;2023-05-19T09:06:06;7.30;;;4.40;;
75456;SDS011;64036;48.266;14.192;2023-05-19T09:08:39;5.80;;;3.30;;
75456;SDS011;64036;48.266;14.192;2023-05-19T09:11:05;6.70;;;3.70;;
75456;SDS011;64036;48.266;14.192;2023-05-19T09:13:31;8.50;;;4.60;;
75456;SDS011;64036;48.266;14.192;2023-05-19T09:15:57;6.30;;;3.70;;
75456;SDS011;64036;48.266;14.192;2023-05-19T09:18:24;6.90;;;4.40;;
75456;SDS011;64036;48.266;14.192;2023-05-19T09:20:58;6.20;;;4.40;;
75456;SDS011;64036;48.266;14.192;2023-05-19T09:23:29;7.40;;;4.40;;
75456;SDS011;64036;48.266;14.192;2023-05-19T09:26:00;6.20;;;4.00;;
75456;SDS011;64036;48.266;14.192;2023-05-19T09:28:33;6.50;;;3.90;;
75456;SDS011;64036;48.266;14.192;2023-05-19T09:31:04;7.20;;;3.70;;
75456;SDS011;64036;48.266;14.192;2023-05-19T09:33:38;8.40;;;4.90;;
75456;SDS011;64036;48.266;14.192;2023-05-19T09:36:05;6.90;;;4.00;;
75456;SDS011;64036;48.266;14.192;2023-05-19T09:38:34;7.40;;;3.90;;
75456;SDS011;64036;48.266;14.192;2023-05-19T09:41:00;7.00;;;4.60;;
75456;SDS011;64036;48.266;14.192;2023-05-19T09:43:27;5.60;;;3.10;;
75456;SDS011;64036;48.266;14.192;2023-05-19T09:46:07;7.10;;;5.00;;
75456;SDS011;64036;48.266;14.192;2023-05-19T09:48:36;7.50;;;4.30;;
75456;SDS011;64036;48.266;14.192;2023-05-19T09:51:02;5.70;;;3.80;;
75456;SDS011;64036;48.266;14.192;2023-05-19T09:53:30;6.80;;;4.60;;
75456;SDS011;64036;48.266;14.192;2023-05-19T09:55:57;6.00;;;4.10;;
75456;SDS011;64036;48.266;14.192;2023-05-19T09:58:23;7.80;;;5.10;;
75456;SDS011;64036;48.266;14.192;2023-05-19T10:00:50;6.90;;;4.90;;
75456;SDS011;64036;48.266;14.192;2023-05-19T10:03:19;6.60;;;4.20;;
75456;SDS011;64036;48.266;14.192;2023-05-19T10:05:47;6.60;;;4.60;;
75456;SDS011;64036;48.266;14.192;2023-05-19T10:08:13;9.50;;;5.50;;
75456;SDS011;64036;48.266;14.192;2023-05-19T10:10:42;7.20;;;4.80;;
75456;SDS011;64036;48.266;14.192;2023-05-19T10:13:11;7.70;;;4.60;;
75456;SDS011;64036;48.266;14.192;2023-05-19T10:15:37;8.80;;;5.10;;
75456;SDS011;64036;48.266;14.192;2023-05-19T10:18:06;7.50;;;5.40;;
75456;SDS011;64036;48.266;14.192;2023-05-19T10:20:33;6.30;;;4.20;;
75456;SDS011;64036;48.266;14.192;2023-05-19T10:23:00;11.50;;;5.50;;
75456;SDS011;64036;48.266;14.192;2023-05-19T10:25:29;7.00;;;4.30;;
75456;SDS011;64036;48.266;14.192;2023-05-19T10:28:03;6.80;;;4.10;;
75456;SDS011;64036;48.266;14.192;2023-05-19T10:33:10;7.50;;;5.20;;
75456;SDS011;64036;48.266;14.192;2023-05-19T10:39:06;9.30;;;4.70;;
75456;SDS011;64036;48.266;14.192;2023-05-19T10:41:55;7.10;;;4.50;;
75456;SDS011;64036;48.266;14.192;2023-05-19T10:47:23;9.00;;;5.00;;
75456;SDS011;64036;48.266;14.192;2023-05-19T10:49:54;6.60;;;4.40;;
75456;SDS011;64036;48.266;14.192;2023-05-19T10:52:21;7.30;;;4.50;;
75456;SDS011;64036;48.266;14.192;2023-05-19T10:54:50;5.50;;;4.00;;
75456;SDS011;64036;48.266;14.192;2023-05-19T10:57:27;9.50;;;4.60;;
75456;SDS011;64036;48.266;14.192;2023-05-19T10:59:56;5.60;;;3.80;;
75456;SDS011;64036;48.266;14.192;2023-05-19T11:02:42;7.70;;;4.40;;
75456;SDS011;64036;48.266;14.192;2023-05-19T11:05:13;8.10;;;4.20;;
75456;SDS011;64036;48.266;14.192;2023-05-19T11:07:43;7.50;;;4.60;;
75456;SDS011;64036;48.266;14.192;2023-05-19T11:10:22;5.80;;;3.50;;
75456;SDS011;64036;48.266;14.192;2023-05-19T11:12:49;6.20;;;4.40;;
75456;SDS011;64036;48.266;14.192;2023-05-19T11:15:15;11.80;;;4.80;;
75456;SDS011;64036;48.266;14.192;2023-05-19T11:17:45;7.60;;;3.90;;
75456;SDS011;64036;48.266;14.192;2023-05-19T11:20:26;6.10;;;4.10;;
75456;SDS011;64036;48.266;14.192;2023-05-19T11:23:13;6.90;;;4.30;;
75456;SDS011;64036;48.266;14.192;2023-05-19T11:25:49;8.80;;;3.90;;
75456;SDS011;64036;48.266;14.192;2023-05-19T11:28:19;6.70;;;4.20;;
75456;SDS011;64036;48.266;14.192;2023-05-19T11:30:50;6.30;;;3.50;;
75456;SDS011;64036;48.266;14.192;2023-05-19T11:33:19;5.50;;;3.60;;
75456;SDS011;64036;48.266;14.192;2023-05-19T11:35:46;6.70;;;3.90;;
75456;SDS011;64036;48.266;14.192;2023-05-19T11:38:13;7.90;;;3.90;;
75456;SDS011;64036;48.266;14.192;2023-05-19T11:40:41;5.40;;;3.40;;
75456;SDS011;64036;48.266;14.192;2023-05-19T11:43:07;6.20;;;3.80;;
75456;SDS011;64036;48.266;14.192;2023-05-19T11:45:33;6.60;;;3.80;;
75456;SDS011;64036;48.266;14.192;2023-05-19T11:47:59;6.30;;;2.60;;
75456;SDS011;64036;48.266;14.192;2023-05-19T11:50:27;6.30;;;3.20;;
75456;SDS011;64036;48.266;14.192;2023-05-19T11:52:53;5.90;;;3.20;;
75456;SDS011;64036;48.266;14.192;2023-05-19T11:55:20;5.70;;;3.60;;
75456;SDS011;64036;48.266;14.192;2023-05-19T11:58:02;5.60;;;3.10;;
75456;SDS011;64036;48.266;14.192;2023-05-19T12:00:29;5.10;;;3.10;;
75456;SDS011;64036;48.266;14.192;2023-05-19T12:03:01;6.40;;;3.10;;
75456;SDS011;64036;48.266;14.192;2023-05-19T12:05:27;6.20;;;3.40;;
75456;SDS011;64036;48.266;14.192;2023-05-19T12:07:54;3.90;;;2.40;;
75456;SDS011;64036;48.266;14.192;2023-05-19T12:10:23;6.90;;;2.90;;
75456;SDS011;64036;48.266;14.192;2023-05-19T12:12:50;4.50;;;2.50;;
75456;SDS011;64036;48.266;14.192;2023-05-19T12:15:23;5.30;;;3.30;;
75456;SDS011;64036;48.266;14.192;2023-05-19T12:20:24;5.50;;;3.20;;
75456;SDS011;64036;48.266;14.192;2023-05-19T12:22:50;6.30;;;3.00;;
75456;SDS011;64036;48.266;14.192;2023-05-19T12:25:17;5.90;;;3.10;;
75456;SDS011;64036;48.266;14.192;2023-05-19T12:27:43;5.50;;;2.80;;
75456;SDS011;64036;48.266;14.192;2023-05-19T12:30:10;8.30;;;3.60;;
75456;SDS011;64036;48.266;14.192;2023-05-19T12:32:37;7.30;;;3.60;;
75456;SDS011;64036;48.266;14.192;2023-05-19T12:35:04;7.20;;;3.40;;
75456;SDS011;64036;48.266;14.192;2023-05-19T12:37:33;6.10;;;2.90;;
75456;SDS011;64036;48.266;14.192;2023-05-19T12:40:00;6.20;;;3.20;;
75456;SDS011;64036;48.266;14.192;2023-05-19T12:42:28;4.80;;;2.90;;
75456;SDS011;64036;48.266;14.192;2023-05-19T12:44:56;6.30;;;3.00;;
75456;SDS011;64036;48.266;14.192;2023-05-19T12:47:34;3.80;;;2.60;;
75456;SDS011;64036;48.266;14.192;2023-05-19T12:52:33;5.10;;;2.80;;
75456;SDS011;64036;48.266;14.192;2023-05-19T12:55:12;3.60;;;2.30;;
75456;SDS011;64036;48.266;14.192;2023-05-19T12:57:41;4.20;;;2.70;;
75456;SDS011;64036;48.266;14.192;2023-05-19T13:00:16;5.00;;;2.70;;
75456;SDS011;64036;48.266;14.192;2023-05-19T13:05:34;4.90;;;2.70;;
75456;SDS011;64036;48.266;14.192;2023-05-19T13:08:08;4.50;;;2.90;;
75456;SDS011;64036;48.266;14.192;2023-05-19T13:10:36;3.70;;;2.30;;
75456;SDS011;64036;48.266;14.192;2023-05-19T13:13:04;4.50;;;2.60;;
75456;SDS011;64036;48.266;14.192;2023-05-19T13:15:32;5.70;;;2.70;;
75456;SDS011;64036;48.266;14.192;2023-05-19T13:18:01;4.00;;;2.30;;
75456;SDS011;64036;48.266;14.192;2023-05-19T13:20:28;3.90;;;2.40;;
75456;SDS011;64036;48.266;14.192;2023-05-19T13:22:54;5.20;;;2.80;;
75456;SDS011;64036;48.266;14.192;2023-05-19T13:25:21;7.40;;;2.90;;
75456;SDS011;64036;48.266;14.192;2023-05-19T13:27:47;3.30;;;2.40;;
75456;SDS011;64036;48.266;14.192;2023-05-19T13:30:14;6.40;;;3.00;;
75456;SDS011;64036;48.266;14.192;2023-05-19T13:32:40;5.60;;;2.80;;
75456;SDS011;64036;48.266;14.192;2023-05-19T13:35:09;5.50;;;3.30;;
75456;SDS011;64036;48.266;14.192;2023-05-19T13:37:35;5.40;;;2.80;;
75456;SDS011;64036;48.266;14.192;2023-05-19T13:40:01;5.30;;;2.70;;
75456;SDS011;64036;48.266;14.192;2023-05-19T13:42:26;6.60;;;2.90;;
75456;SDS011;64036;48.266;14.192;2023-05-19T13:44:55;5.60;;;2.70;;
75456;SDS011;64036;48.266;14.192;2023-05-19T13:47:24;4.60;;;2.70;;
75456;SDS011;64036;48.266;14.192;2023-05-19T13:49:50;4.50;;;2.80;;
75456;SDS011;64036;48.266;14.192;2023-05-19T13:52:16;3.70;;;2.50;;
75456;SDS011;64036;48.266;14.192;2023-05-19T13:54:42;5.10;;;2.80;;
75456;SDS011;64036;48.266;14.192;2023-05-19T13:57:08;8.70;;;2.60;;
75456;SDS011;64036;48.266;14.192;2023-05-19T13:59:33;5.00;;;2.70;;
75456;SDS011;64036;48.266;14.192;2023-05-19T14:02:00;4.70;;;2.80;;
75456;SDS011;64036;48.266;14.192;2023-05-19T14:04:29;4.60;;;2.80;;
75456;SDS011;64036;48.266;14.192;2023-05-19T14:06:55;4.20;;;2.70;;
75456;SDS011;64036;48.266;14.192;2023-05-19T14:09:21;5.00;;;2.90;;
75456;SDS011;64036;48.266;14.192;2023-05-19T14:11:47;4.80;;;2.60;;
75456;SDS011;64036;48.266;14.192;2023-05-19T14:14:13;4.90;;;2.20;;
75456;SDS011;64036;48.266;14.192;2023-05-19T14:16:39;3.90;;;2.60;;
75456;SDS011;64036;48.266;14.192;2023-05-19T14:19:05;3.90;;;2.40;;
75456;SDS011;64036;48.266;14.192;2023-05-19T14:21:31;5.70;;;2.80;;
75456;SDS011;64036;48.266;14.192;2023-05-19T14:23:57;4.20;;;2.60;;
75456;SDS011;64036;48.266;14.192;2023-05-19T14:26:23;4.00;;;2.60;;
75456;SDS011;64036;48.266;14.192;2023-05-19T14:28:48;4.60;;;2.80;;
75456;SDS011;64036;48.266;14.192;2023-05-19T14:31:14;5.10;;;2.50;;
75456;SDS011;64036;48.266;14.192;2023-05-19T14:33:40;7.50;;;2.90;;
75456;SDS011;64036;48.266;14.192;2023-05-19T14:36:07;4.90;;;2.80;;
75456;SDS011;64036;48.266;14.192;2023-05-19T14:38:33;4.20;;;2.40;;
75456;SDS011;64036;48.266;14.192;2023-05-19T14:40:58;4.50;;;2.60;;
75456;SDS011;64036;48.266;14.192;2023-05-19T14:43:24;4.10;;;2.60;;
75456;SDS011;64036;48.266;14.192;2023-05-19T14:45:50;7.00;;;2.60;;
75456;SDS011;64036;48.266;14.192;2023-05-19T14:48:16;5.20;;;3.00;;
75456;SDS011;64036;48.266;14.192;2023-05-19T14:50:41;3.80;;;2.50;;
75456;SDS011;64036;48.266;14.192;2023-05-19T14:53:07;5.10;;;2.80;;
75456;SDS011;64036;48.266;14.192;2023-05-19T14:55:33;4.90;;;2.70;;
75456;SDS011;64036;48.266;14.192;2023-05-19T14:57:58;4.20;;;2.60;;
75456;SDS011;64036;48.266;14.192;2023-05-19T15:00:24;5.80;;;2.80;;
75456;SDS011;64036;48.266;14.192;2023-05-19T15:02:53;4.70;;;2.70;;
75456;SDS011;64036;48.266;14.192;2023-05-19T15:05:20;5.30;;;2.60;;
75456;SDS011;64036;48.266;14.192;2023-05-19T15:07:48;5.70;;;2.80;;